Time;durP1;ratioP1;P1;durP2;ratioP2;P2;SDS_P1;SDS_P2;PMS_P1;PMS_P2;Temp;Humidity;BMP_temperature;BMP_pressure;BME280_temperature;BME280_humidity;BME280_pressure;Samples;Min_cycle;Max_cycle;Signal;HPM_P1;HPM_P2
2023/06/12 00:02:08;;;;;;;5.90;5.50;;;25.30;50.70;;;;;;6185645;23;20607;-70
2023/06/12 00:04:34;;;;;;;5.73;5.23;;;25.30;50.70;;;;;;6185370;23;20631;-70
2023/06/12 00:07:01;;;;;;;6.43;5.87;;;25.30;50.60;;;;;;6185886;23;20609;-70
2023/06/12 00:09:28;;;;;;;6.00;5.50;;;25.30;50.60;;;;;;6185766;23;20238;-70
2023/06/12 00:11:53;;;;;;;5.67;5.17;;;25.30;50.60;;;;;;6185565;23;20453;-70
2023/06/12 00:14:19;;;;;;;6.33;5.77;;;25.30;50.60;;;;;;6185447;23;20391;-70
2023/06/12 00:16:44;;;;;;;6.27;5.63;;;25.30;50.60;;;;;;6185517;23;20156;-70
2023/06/12 00:19:11;;;;;;;6.30;5.80;;;25.30;50.60;;;;;;6158979;23;20156;-70
2023/06/12 00:21:37;;;;;;;5.63;5.23;;;25.30;50.60;;;;;;6185345;23;20188;-70
2023/06/12 00:24:08;;;;;;;7.57;5.33;;;25.30;50.60;;;;;;6185596;23;20406;-71
2023/06/12 00:26:34;;;;;;;6.27;5.77;;;25.30;50.50;;;;;;6185376;23;20140;-70
2023/06/12 00:29:00;;;;;;;5.87;5.37;;;25.30;50.60;;;;;;6185537;23;20419;-70
2023/06/12 00:31:25;;;;;;;6.47;5.87;;;25.30;50.50;;;;;;6185619;23;20372;-71
2023/06/12 00:33:51;;;;;;;6.00;5.50;;;25.30;50.60;;;;;;6185223;23;20148;-70
2023/06/12 00:36:17;;;;;;;6.00;5.50;;;25.30;50.50;;;;;;6185211;23;20198;-70
2023/06/12 00:38:42;;;;;;;6.13;5.63;;;25.30;50.40;;;;;;6185329;23;20144;-70
2023/06/12 00:41:08;;;;;;;5.90;5.47;;;25.30;50.40;;;;;;6185563;23;20143;-70
2023/06/12 00:43:34;;;;;;;6.13;5.57;;;25.30;50.40;;;;;;6185228;23;20658;-69
2023/06/12 00:46:00;;;;;;;6.47;5.97;;;25.30;50.30;;;;;;6185057;23;20663;-69
2023/06/12 00:48:26;;;;;;;6.27;5.67;;;25.30;50.40;;;;;;6185087;23;20370;-69
2023/06/12 00:50:56;;;;;;;6.23;5.73;;;25.30;50.40;;;;;;6185085;23;20900;-69
2023/06/12 00:53:21;;;;;;;7.40;6.70;;;25.30;50.40;;;;;;6158700;23;20163;-69
2023/06/12 00:55:47;;;;;;;6.20;5.60;;;25.30;50.40;;;;;;6158280;23;20427;-69
2023/06/12 00:58:13;;;;;;;6.80;6.17;;;25.30;50.40;;;;;;6184975;23;20158;-70
2023/06/12 01:00:38;;;;;;;7.23;6.63;;;25.30;50.30;;;;;;6185075;23;20152;-69
2023/06/12 01:03:07;;;;;;;6.40;5.90;;;25.30;50.30;;;;;;6158481;23;20160;-69
2023/06/12 01:05:36;;;;;;;6.50;6.00;;;25.30;50.20;;;;;;6184904;23;20921;-70
2023/06/12 01:08:27;;;;;;;7.40;6.70;;;25.30;50.20;;;;;;6185016;23;20415;-69
2023/06/12 01:10:57;;;;;;;6.73;6.00;;;25.30;50.20;;;;;;6184817;23;20415;-69
2023/06/12 01:13:23;;;;;;;6.27;5.77;;;25.30;50.20;;;;;;6185275;23;20375;-69
2023/06/12 01:15:49;;;;;;;6.93;6.23;;;25.30;50.10;;;;;;6184832;23;20402;-69
2023/06/12 01:18:15;;;;;;;6.60;6.00;;;25.30;50.20;;;;;;6184825;23;20151;-69
2023/06/12 01:20:42;;;;;;;6.17;5.67;;;25.30;50.10;;;;;;6184847;23;20379;-69
2023/06/12 01:23:33;;;;;;;7.13;6.53;;;25.30;50.10;;;;;;6184729;23;20407;-69
2023/06/12 01:26:08;;;;;;;6.60;5.90;;;25.30;50.10;;;;;;6184690;23;20387;-69
2023/06/12 01:29:06;;;;;;;6.40;5.80;;;25.20;50.10;;;;;;6184827;23;20363;-69
2023/06/12 01:31:43;;;;;;;7.40;6.70;;;25.30;50.10;;;;;;6184799;23;20351;-69
2023/06/12 01:34:20;;;;;;;6.67;6.17;;;25.20;50.10;;;;;;6158807;23;20418;-70
2023/06/12 01:36:55;;;;;;;6.60;6.03;;;25.20;50.10;;;;;;6185032;23;20854;-69
2023/06/12 01:39:23;;;;;;;6.53;5.93;;;25.20;50.10;;;;;;6184716;23;20740;-69
2023/06/12 01:41:49;;;;;;;7.17;6.47;;;25.20;50.60;;;;;;6184669;23;20390;-70
2023/06/12 01:44:16;;;;;;;6.83;6.13;;;25.20;50.00;;;;;;6184619;23;20417;-69
2023/06/12 01:46:42;;;;;;;6.20;5.70;;;25.20;50.50;;;;;;6184541;23;20379;-69
2023/06/12 01:49:08;;;;;;;7.20;6.60;;;25.20;49.80;;;;;;6184502;23;20422;-69
2023/06/12 01:51:34;;;;;;;5.87;5.37;;;25.20;49.80;;;;;;6184539;23;20164;-69
2023/06/12 01:54:00;;;;;;;6.80;6.10;;;25.20;49.80;;;;;;6184420;23;20148;-69
2023/06/12 01:56:27;;;;;;;7.10;6.00;;;25.20;49.80;;;;;;6184332;23;20555;-69
2023/06/12 01:58:53;;;;;;;6.47;5.87;;;25.20;49.80;;;;;;6184532;23;20845;-69
2023/06/12 02:01:19;;;;;;;6.60;6.00;;;25.20;49.80;;;;;;6184381;23;20857;-69
2023/06/12 02:03:48;;;;;;;6.77;6.17;;;25.20;49.70;;;;;;6184478;23;20743;-69
2023/06/12 02:06:17;;;;;;;7.27;6.67;;;25.20;49.70;;;;;;6184245;23;20168;-69
2023/06/12 02:08:43;;;;;;;6.23;5.73;;;25.20;49.70;;;;;;6184257;23;20981;-69
2023/06/12 02:11:09;;;;;;;6.30;5.80;;;25.20;49.70;;;;;;6184709;23;20881;-69
2023/06/12 02:13:35;;;;;;;6.47;5.87;;;25.20;49.60;;;;;;6184604;23;20371;-69
2023/06/12 02:16:05;;;;;;;6.67;6.07;;;25.20;49.60;;;;;;6184523;23;20553;-69
2023/06/12 02:18:32;;;;;;;7.30;6.60;;;25.20;49.60;;;;;;6157780;23;20171;-69
2023/06/12 02:20:57;;;;;;;6.40;5.90;;;25.20;49.50;;;;;;6184283;23;20375;-70
2023/06/12 02:23:23;;;;;;;6.73;6.17;;;25.20;49.60;;;;;;6184556;23;20673;-69
2023/06/12 02:25:48;;;;;;;7.63;6.20;;;25.20;49.60;;;;;;6184211;23;20179;-69
2023/06/12 02:28:14;;;;;;;6.80;6.10;;;25.20;49.60;;;;;;6184272;23;20595;-70
2023/06/12 02:30:40;;;;;;;6.83;6.23;;;25.20;49.60;;;;;;6184160;23;20511;-69
2023/06/12 02:33:09;;;;;;;6.93;6.40;;;25.20;49.60;;;;;;6184192;23;20140;-69
2023/06/12 02:35:36;;;;;;;7.00;6.40;;;25.20;49.60;;;;;;6184043;23;20518;-69
2023/06/12 02:38:02;;;;;;;7.97;7.17;;;25.10;49.50;;;;;;6184465;23;20900;-69
2023/06/12 02:40:27;;;;;;;7.47;6.00;;;25.10;49.50;;;;;;6184142;23;20406;-68
2023/06/12 02:42:53;;;;;;;6.87;6.37;;;25.10;49.50;;;;;;6184443;23;20156;-69
2023/06/12 02:45:21;;;;;;;7.00;6.20;;;25.20;50.00;;;;;;6184081;23;20206;-69
2023/06/12 02:47:47;;;;;;;6.90;6.30;;;25.10;49.40;;;;;;6184373;23;20544;-69
2023/06/12 02:50:13;;;;;;;7.13;6.40;;;25.20;49.40;;;;;;6183974;23;20415;-69
2023/06/12 02:52:40;;;;;;;7.50;6.80;;;25.10;49.40;;;;;;6184087;23;20151;-69
2023/06/12 02:55:06;;;;;;;6.60;6.10;;;25.20;49.50;;;;;;6183797;23;20184;-69
2023/06/12 02:57:33;;;;;;;9.00;7.10;;;25.10;49.40;;;;;;6184398;23;20418;-69
2023/06/12 02:59:59;;;;;;;6.30;5.80;;;25.20;49.50;;;;;;6184013;23;20386;-69
2023/06/12 03:02:25;;;;;;;7.63;6.93;;;25.10;49.40;;;;;;6183985;23;20444;-69
2023/06/12 03:04:51;;;;;;;6.77;6.17;;;25.10;49.40;;;;;;6183867;23;20489;-69
2023/06/12 03:07:16;;;;;;;7.37;6.77;;;25.10;49.40;;;;;;6184304;23;20151;-70
2023/06/12 03:09:43;;;;;;;6.30;5.80;;;25.10;49.30;;;;;;6183907;23;20186;-69
2023/06/12 03:12:09;;;;;;;6.77;6.20;;;25.10;49.30;;;;;;6183910;23;20422;-70
2023/06/12 03:14:36;;;;;;;7.07;6.47;;;25.10;49.30;;;;;;6183817;23;20469;-69
2023/06/12 03:17:02;;;;;;;7.07;6.33;;;25.10;49.30;;;;;;6183921;23;20375;-69
2023/06/12 03:19:28;;;;;;;7.37;6.77;;;25.10;49.30;;;;;;6184404;23;20383;-69
2023/06/12 03:21:53;;;;;;;6.90;6.37;;;25.10;49.30;;;;;;6185762;23;20744;-69
2023/06/12 03:24:20;;;;;;;6.60;6.00;;;25.10;49.30;;;;;;6185457;23;20213;-68
2023/06/12 03:26:46;;;;;;;7.37;6.70;;;25.10;49.30;;;;;;6185353;23;20235;-68
2023/06/12 03:29:12;;;;;;;7.40;6.80;;;25.10;49.30;;;;;;6159261;23;20450;-69
2023/06/12 03:31:38;;;;;;;7.70;7.00;;;25.10;49.20;;;;;;6184440;23;20377;-69
2023/06/12 03:34:04;;;;;;;7.07;6.47;;;25.10;49.20;;;;;;6183908;23;20203;-69
2023/06/12 03:36:33;;;;;;;8.00;6.43;;;25.10;49.20;;;;;;6185519;23;20375;-69
2023/06/12 03:39:00;;;;;;;6.80;6.20;;;25.10;49.10;;;;;;6184889;23;20457;-69
2023/06/12 03:41:28;;;;;;;7.10;6.50;;;25.10;49.10;;;;;;6158311;23;20390;-69
2023/06/12 03:43:54;;;;;;;7.50;6.80;;;25.10;49.00;;;;;;6185689;23;20367;-68
2023/06/12 03:46:20;;;;;;;7.60;6.90;;;25.10;49.10;;;;;;6159272;23;20389;-69
2023/06/12 03:48:45;;;;;;;7.80;7.10;;;25.10;49.00;;;;;;6185491;23;20159;-69
2023/06/12 03:51:11;;;;;;;8.50;7.70;;;25.10;49.10;;;;;;6185610;23;20576;-69
2023/06/12 03:53:38;;;;;;;6.90;6.30;;;25.10;49.20;;;;;;6185724;23;20156;-69
2023/06/12 03:56:04;;;;;;;7.90;6.90;;;25.10;49.10;;;;;;6185754;23;20183;-69
2023/06/12 03:58:30;;;;;;;7.77;7.03;;;25.10;49.10;;;;;;6185791;23;21003;-69
2023/06/12 04:00:56;;;;;;;7.70;7.03;;;25.10;49.00;;;;;;6185448;23;20152;-69
2023/06/12 04:03:24;;;;;;;8.13;7.33;;;25.10;48.90;;;;;;6158913;23;20610;-69
2023/06/12 04:05:50;;;;;;;7.80;7.10;;;25.10;48.90;;;;;;6184029;23;20501;-69
2023/06/12 04:08:16;;;;;;;8.27;6.40;;;25.10;48.90;;;;;;6185407;23;20726;-69
2023/06/12 04:10:45;;;;;;;8.10;7.37;;;25.10;48.80;;;;;;6158849;23;20429;-69
2023/06/12 04:13:12;;;;;;;7.80;7.00;;;25.10;48.90;;;;;;6185240;23;20398;-69
2023/06/12 04:15:38;;;;;;;7.43;6.77;;;25.10;48.80;;;;;;6184991;23;20391;-69
2023/06/12 04:18:05;;;;;;;7.17;6.57;;;25.10;48.80;;;;;;6185422;23;20403;-69
2023/06/12 04:20:32;;;;;;;7.30;6.70;;;25.10;48.80;;;;;;6185306;23;20483;-69
2023/06/12 04:22:58;;;;;;;7.60;7.00;;;25.10;48.80;;;;;;6185405;23;20383;-69
2023/06/12 04:25:27;;;;;;;7.93;7.23;;;25.20;48.90;;;;;;6185273;23;20927;-69
2023/06/12 04:27:53;;;;;;;8.20;7.50;;;25.20;48.90;;;;;;6185266;23;20462;-70
2023/06/12 04:30:21;;;;;;;7.13;6.33;;;25.10;48.70;;;;;;6185174;23;20532;-69
2023/06/12 04:32:47;;;;;;;8.33;7.53;;;25.20;48.80;;;;;;6183772;23;20194;-69
2023/06/12 04:35:16;;;;;;;8.20;7.17;;;25.20;49.00;;;;;;6185170;23;20406;-69
2023/06/12 04:37:42;;;;;;;7.93;7.17;;;25.10;49.00;;;;;;6185190;23;20382;-69
2023/06/12 04:40:11;;;;;;;7.10;6.50;;;25.20;49.10;;;;;;6185192;23;20379;-69
2023/06/12 04:42:37;;;;;;;7.27;6.67;;;25.20;49.20;;;;;;6185229;23;20783;-69
2023/06/12 04:45:04;;;;;;;8.10;7.30;;;25.20;49.20;;;;;;6185005;23;20485;-69
2023/06/12 04:47:30;;;;;;;7.80;7.00;;;25.20;49.20;;;;;;6185426;23;20383;-69
2023/06/12 04:49:57;;;;;;;8.27;7.50;;;25.20;49.20;;;;;;6185040;23;20521;-69
2023/06/12 04:52:23;;;;;;;6.87;6.37;;;25.20;49.20;;;;;;6185077;23;20493;-69
2023/06/12 04:54:49;;;;;;;7.20;6.60;;;25.20;49.30;;;;;;6184893;23;20403;-69
2023/06/12 04:57:16;;;;;;;6.20;5.70;;;25.20;49.30;;;;;;6185079;23;20386;-69
2023/06/12 04:59:44;;;;;;;7.57;6.90;;;25.20;49.30;;;;;;6185051;23;20155;-69
2023/06/12 05:02:11;;;;;;;6.57;6.07;;;25.20;49.50;;;;;;6184983;23;20382;-69
2023/06/12 05:04:38;;;;;;;7.20;6.60;;;25.20;50.00;;;;;;6184923;23;20430;-69
2023/06/12 05:07:13;;;;;;;7.47;5.90;;;25.20;49.40;;;;;;6184912;23;20375;-69
2023/06/12 05:09:39;;;;;;;7.20;6.60;;;25.20;49.40;;;;;;6184815;23;20414;-68
2023/06/12 05:12:06;;;;;;;6.70;6.10;;;25.30;49.50;;;;;;6184793;23;20426;-69
2023/06/12 05:14:34;;;;;;;6.03;5.53;;;25.30;49.50;;;;;;6185146;23;20172;-69
2023/06/12 05:17:00;;;;;;;7.03;6.53;;;25.30;49.60;;;;;;6185104;23;20729;-69
2023/06/12 05:19:26;;;;;;;6.97;6.30;;;25.30;49.70;;;;;;6184692;23;20463;-69
2023/06/12 05:21:52;;;;;;;7.73;7.03;;;25.30;49.70;;;;;;6184801;23;20699;-69
2023/06/12 05:24:18;;;;;;;6.40;5.90;;;25.20;49.60;;;;;;6184525;23;20402;-69
2023/06/12 05:26:44;;;;;;;7.27;6.67;;;25.30;49.70;;;;;;6184717;23;20182;-69
2023/06/12 05:29:10;;;;;;;6.80;6.23;;;25.30;49.70;;;;;;6184659;23;20167;-69
2023/06/12 05:31:35;;;;;;;6.67;6.10;;;25.30;49.80;;;;;;6185067;23;20152;-70
2023/06/12 05:34:01;;;;;;;7.17;6.50;;;25.20;49.80;;;;;;6184540;23;20371;-69
2023/06/12 05:36:26;;;;;;;7.13;6.50;;;25.30;49.80;;;;;;6184674;23;20151;-69
2023/06/12 05:38:52;;;;;;;6.80;6.20;;;25.30;49.90;;;;;;6184604;23;20159;-69
2023/06/12 05:41:18;;;;;;;7.60;6.87;;;25.30;49.90;;;;;;6184510;23;20148;-69
2023/06/12 05:43:45;;;;;;;7.30;6.40;;;25.30;49.90;;;;;;6184531;23;20148;-69
2023/06/12 05:46:15;;;;;;;6.97;6.37;;;25.30;49.90;;;;;;6184452;23;20163;-69
2023/06/12 05:48:40;;;;;;;6.97;6.23;;;25.30;49.90;;;;;;6184616;23;20379;-69
2023/06/12 05:51:07;;;;;;;7.97;7.17;;;25.30;49.80;;;;;;6184486;23;20419;-69
2023/06/12 05:53:36;;;;;;;6.63;6.03;;;25.30;49.80;;;;;;6158032;23;20156;-69
2023/06/12 05:56:01;;;;;;;7.03;6.30;;;25.30;50.40;;;;;;6184253;23;20514;-69
2023/06/12 05:58:27;;;;;;;6.90;6.27;;;25.30;49.90;;;;;;6184521;23;20449;-69
2023/06/12 06:00:55;;;;;;;8.17;7.23;;;25.30;49.90;;;;;;6184343;23;20503;-69
2023/06/12 06:03:23;;;;;;;7.70;7.03;;;25.30;49.90;;;;;;6184811;23;20599;-69
2023/06/12 06:05:49;;;;;;;9.13;6.67;;;25.30;50.00;;;;;;6184338;23;20904;-69
2023/06/12 06:08:15;;;;;;;7.80;7.10;;;25.30;50.00;;;;;;6184412;23;20378;-69
2023/06/12 06:10:41;;;;;;;7.57;6.60;;;25.30;50.00;;;;;;6184263;23;20175;-69
2023/06/12 06:13:08;;;;;;;6.73;5.83;;;25.30;50.00;;;;;;6184289;23;20147;-69
2023/06/12 06:15:33;;;;;;;6.70;6.10;;;25.30;50.10;;;;;;6184270;23;20395;-69
2023/06/12 06:17:59;;;;;;;6.77;6.10;;;25.30;50.10;;;;;;6184272;23;20375;-69
2023/06/12 06:20:26;;;;;;;7.37;6.23;;;25.30;50.10;;;;;;6184283;23;20234;-69
2023/06/12 06:22:51;;;;;;;6.73;6.00;;;25.30;50.10;;;;;;6184290;23;20504;-69
2023/06/12 06:25:17;;;;;;;6.17;5.67;;;25.30;50.10;;;;;;6184095;23;20403;-68
2023/06/12 06:27:43;;;;;;;6.60;6.10;;;25.30;50.10;;;;;;6184102;23;20199;-69
2023/06/12 06:30:09;;;;;;;6.50;5.93;;;25.30;50.10;;;;;;6184072;23;20507;-69
2023/06/12 06:32:35;;;;;;;8.13;5.70;;;25.30;50.10;;;;;;6184095;23;20611;-68
2023/06/12 06:35:02;;;;;;;7.00;6.37;;;25.40;50.20;;;;;;6184118;23;20882;-69
2023/06/12 06:37:28;;;;;;;7.20;6.50;;;25.40;50.30;;;;;;6184142;23;20375;-69
2023/06/12 06:39:53;;;;;;;6.70;6.10;;;25.40;50.30;;;;;;6184028;23;20458;-69
2023/06/12 06:42:19;;;;;;;6.67;6.13;;;25.30;50.20;;;;;;6184091;23;20155;-69
2023/06/12 06:44:45;;;;;;;6.27;5.73;;;25.30;50.20;;;;;;6184018;23;20230;-69
2023/06/12 06:47:11;;;;;;;6.97;6.37;;;25.30;50.30;;;;;;6184042;23;20618;-68
2023/06/12 06:49:37;;;;;;;6.33;5.73;;;25.40;50.30;;;;;;6183934;23;20442;-68
2023/06/12 06:52:04;;;;;;;6.27;5.67;;;25.30;50.30;;;;;;6183989;23;20457;-68
2023/06/12 06:54:30;;;;;;;6.70;6.10;;;25.30;50.20;;;;;;6183668;23;20402;-69
2023/06/12 06:56:56;;;;;;;5.87;5.37;;;25.30;50.20;;;;;;6183941;23;20387;-69
2023/06/12 06:59:22;;;;;;;6.70;6.10;;;25.40;50.20;;;;;;6184036;23;20563;-69
2023/06/12 07:01:48;;;;;;;6.10;5.60;;;25.40;50.20;;;;;;6183997;23;20398;-70
2023/06/12 07:04:14;;;;;;;6.03;5.30;;;25.30;50.10;;;;;;6184151;23;20571;-70
2023/06/12 07:06:40;;;;;;;5.97;5.50;;;25.40;50.20;;;;;;6184321;23;20450;-70
2023/06/12 07:09:05;;;;;;;6.20;5.63;;;25.40;50.10;;;;;;6183815;23;20148;-70
2023/06/12 07:11:31;;;;;;;6.53;6.00;;;25.40;50.20;;;;;;6184256;23;20156;-69
2023/06/12 07:13:57;;;;;;;6.20;5.50;;;25.40;50.10;;;;;;6183887;23;20223;-70
2023/06/12 07:16:23;;;;;;;6.13;5.57;;;25.40;50.10;;;;;;6183933;23;20171;-70
2023/06/12 07:18:48;;;;;;;6.70;6.00;;;25.40;50.10;;;;;;6183944;23;20394;-70
2023/06/12 07:21:14;;;;;;;6.60;6.00;;;25.40;50.10;;;;;;6183893;23;20160;-70
2023/06/12 07:23:40;;;;;;;9.60;5.57;;;25.40;50.10;;;;;;6183894;23;20190;-70
2023/06/12 07:26:05;;;;;;;6.23;5.73;;;25.40;50.10;;;;;;6184461;23;20477;-69
2023/06/12 07:28:31;;;;;;;5.70;5.20;;;25.40;50.10;;;;;;6183889;23;20165;-70
2023/06/12 07:30:56;;;;;;;6.37;5.80;;;25.40;50.10;;;;;;6183831;23;20619;-69
2023/06/12 07:33:22;;;;;;;5.80;5.30;;;25.40;50.10;;;;;;6184093;23;20156;-69
2023/06/12 07:35:48;;;;;;;6.10;5.60;;;25.40;50.10;;;;;;6183836;23;20167;-70
2023/06/12 07:38:13;;;;;;;6.13;5.57;;;25.40;50.10;;;;;;6183856;23;20144;-70
2023/06/12 07:40:39;;;;;;;6.20;5.57;;;25.40;50.10;;;;;;6157437;23;20152;-69
2023/06/12 07:43:05;;;;;;;6.33;5.40;;;25.40;50.10;;;;;;6183773;23;20148;-69
2023/06/12 07:45:31;;;;;;;5.27;4.87;;;25.40;50.10;;;;;;6183749;23;20176;-69
2023/06/12 07:47:57;;;;;;;6.40;5.80;;;25.40;50.10;;;;;;6183742;23;20466;-70
2023/06/12 07:50:24;;;;;;;5.67;5.20;;;25.40;50.10;;;;;;6157664;23;20179;-69
2023/06/12 07:52:49;;;;;;;7.00;6.40;;;25.40;50.10;;;;;;6183753;23;20375;-69
2023/06/12 07:55:16;;;;;;;5.83;5.33;;;25.40;50.10;;;;;;6183790;23;20441;-69
2023/06/12 07:57:41;;;;;;;5.77;5.27;;;25.40;50.10;;;;;;6157403;23;20151;-69
2023/06/12 08:00:07;;;;;;;5.77;5.27;;;25.40;50.10;;;;;;6183698;23;20375;-69
2023/06/12 08:02:34;;;;;;;6.20;5.70;;;25.40;50.10;;;;;;6183596;23;20239;-70
2023/06/12 08:05:00;;;;;;;5.90;5.40;;;25.40;50.10;;;;;;6183517;23;20395;-70
2023/06/12 08:07:27;;;;;;;6.27;5.67;;;25.40;50.10;;;;;;6184811;23;20379;-70
2023/06/12 08:09:53;;;;;;;6.00;5.50;;;25.40;50.10;;;;;;6185276;23;20729;-70
2023/06/12 08:12:19;;;;;;;6.30;5.50;;;25.40;50.10;;;;;;6185516;23;20402;-69
2023/06/12 08:14:47;;;;;;;6.10;5.60;;;25.40;50.10;;;;;;6185407;23;20394;-69
2023/06/12 08:17:13;;;;;;;7.50;5.33;;;25.40;50.10;;;;;;6185492;23;20446;-69
2023/06/12 08:19:40;;;;;;;6.47;5.87;;;25.40;50.10;;;;;;6185497;23;20371;-69
2023/06/12 08:22:07;;;;;;;5.57;5.07;;;25.40;50.70;;;;;;6185718;23;20402;-69
2023/06/12 08:24:35;;;;;;;5.70;5.30;;;25.40;50.10;;;;;;6185318;23;20402;-69
2023/06/12 08:27:02;;;;;;;5.27;4.87;;;25.40;50.10;;;;;;6185490;23;20376;-69
2023/06/12 08:29:28;;;;;;;6.00;5.50;;;25.40;50.10;;;;;;6159181;23;20418;-69
2023/06/12 08:31:54;;;;;;;4.87;4.50;;;25.40;50.20;;;;;;6185317;23;20437;-69
2023/06/12 08:34:24;;;;;;;5.63;5.20;;;25.40;50.10;;;;;;6185141;23;20394;-68
2023/06/12 08:36:53;;;;;;;5.40;4.60;;;25.40;50.10;;;;;;6185284;23;20401;-69
2023/06/12 08:39:18;;;;;;;6.40;5.90;;;25.40;50.20;;;;;;6185257;23;20693;-70
2023/06/12 08:42:03;;;;;;;5.80;5.30;;;25.40;50.20;;;;;;6185234;23;20375;-69
2023/06/12 08:44:30;;;;;;;5.30;4.90;;;25.40;50.10;;;;;;6185539;23;20254;-68
2023/06/12 08:46:58;;;;;;;6.13;5.63;;;25.40;50.20;;;;;;6185236;23;20433;-70
2023/06/12 08:49:25;;;;;;;6.47;5.87;;;25.40;50.30;;;;;;6185073;23;20415;-69
2023/06/12 08:51:51;;;;;;;5.20;4.80;;;25.40;50.30;;;;;;6185182;23;20741;-69
2023/06/12 08:54:17;;;;;;;6.07;5.57;;;25.40;50.30;;;;;;6184924;23;20467;-69
2023/06/12 08:56:45;;;;;;;5.50;5.10;;;25.40;50.30;;;;;;6184959;23;20605;-70
2023/06/12 08:59:10;;;;;;;5.90;5.40;;;25.40;50.30;;;;;;6185104;23;20450;-70
2023/06/12 09:01:38;;;;;;;5.60;5.10;;;25.50;50.40;;;;;;6184956;23;20372;-70
2023/06/12 09:04:19;;;;;;;5.17;4.77;;;25.50;50.40;;;;;;6184864;23;20598;-70
2023/06/12 09:06:45;;;;;;;6.20;5.70;;;25.40;50.30;;;;;;6185318;23;20418;-70
2023/06/12 09:09:11;;;;;;;5.40;4.90;;;25.40;50.30;;;;;;6184860;23;20363;-70
2023/06/12 09:11:37;;;;;;;4.83;4.43;;;25.40;50.30;;;;;;6185327;23;20457;-70
2023/06/12 09:14:03;;;;;;;5.37;4.87;;;25.50;50.40;;;;;;6184923;23;20494;-70
2023/06/12 09:16:30;;;;;;;5.47;4.97;;;25.50;50.40;;;;;;6184857;23;20375;-70
2023/06/12 09:18:56;;;;;;;5.37;4.97;;;25.40;50.40;;;;;;6184572;23;20406;-70
2023/06/12 09:21:23;;;;;;;5.70;5.20;;;25.40;50.40;;;;;;6184844;23;20445;-70
2023/06/12 09:23:54;;;;;;;5.53;5.10;;;25.50;50.50;;;;;;6184842;23;20489;-70
2023/06/12 09:26:21;;;;;;;5.67;5.23;;;25.50;50.50;;;;;;6184888;23;20850;-70
2023/06/12 09:28:52;;;;;;;5.73;5.23;;;25.50;50.50;;;;;;6184800;23;20453;-69
2023/06/12 09:31:18;;;;;;;4.60;4.20;;;25.50;50.50;;;;;;6184637;23;20398;-70
2023/06/12 09:33:44;;;;;;;5.73;5.23;;;25.50;50.50;;;;;;6184779;23;20838;-69
2023/06/12 09:36:11;;;;;;;4.93;4.53;;;25.50;50.50;;;;;;6184583;23;20179;-69
2023/06/12 09:38:37;;;;;;;5.50;5.00;;;25.50;50.60;;;;;;6184658;23;20379;-68
2023/06/12 09:41:05;;;;;;;5.40;4.90;;;25.50;50.50;;;;;;6184704;23;20382;-69
2023/06/12 09:43:31;;;;;;;5.50;5.00;;;25.50;51.10;;;;;;6184721;23;20407;-69
2023/06/12 09:45:58;;;;;;;5.50;5.00;;;25.50;50.60;;;;;;6184846;23;20426;-69
2023/06/12 09:48:24;;;;;;;4.80;4.40;;;25.50;50.60;;;;;;6184455;23;20375;-68
2023/06/12 09:50:50;;;;;;;5.90;5.40;;;25.50;50.60;;;;;;6184538;23;20893;-70
2023/06/12 09:53:20;;;;;;;5.47;4.97;;;25.50;50.60;;;;;;6184246;23;20375;-70
2023/06/12 09:55:47;;;;;;;4.80;4.40;;;25.50;50.60;;;;;;6157439;23;20429;-69
2023/06/12 09:58:13;;;;;;;5.77;5.27;;;25.50;50.60;;;;;;6183252;23;20403;-68
2023/06/12 10:00:39;;;;;;;4.93;4.53;;;25.50;50.60;;;;;;6183538;23;20399;-69
2023/06/12 10:03:10;;;;;;;5.27;4.77;;;25.50;50.70;;;;;;6183052;23;20726;-70
2023/06/12 10:05:48;;;;;;;5.07;4.67;;;25.50;50.60;;;;;;6183074;23;20168;-69
2023/06/12 10:08:16;;;;;;;5.07;4.67;;;25.50;50.70;;;;;;6182888;23;20394;-69
2023/06/12 10:10:44;;;;;;;5.20;4.73;;;25.50;50.70;;;;;;6180155;23;20510;-69
2023/06/12 10:13:12;;;;;;;4.73;4.40;;;25.50;50.70;;;;;;6183149;23;20379;-69
2023/06/12 10:15:39;;;;;;;5.87;5.37;;;25.50;50.70;;;;;;6183127;23;20429;-70
2023/06/12 10:18:08;;;;;;;4.77;4.37;;;25.50;50.70;;;;;;6183151;23;20758;-70
2023/06/12 10:20:34;;;;;;;4.80;4.43;;;25.50;50.70;;;;;;6183383;23;20721;-69
2023/06/12 10:23:02;;;;;;;4.80;4.40;;;25.50;50.70;;;;;;6183175;23;20367;-69
2023/06/12 10:25:30;;;;;;;4.90;4.50;;;25.50;50.70;;;;;;6183026;23;21157;-70
2023/06/12 10:27:56;;;;;;;4.77;4.37;;;25.50;50.80;;;;;;6183059;23;20378;-70
2023/06/12 10:30:21;;;;;;;4.77;4.37;;;25.50;50.80;;;;;;6182325;23;20736;-70
2023/06/12 10:32:47;;;;;;;7.33;5.23;;;25.50;50.80;;;;;;6182923;23;20398;-70
2023/06/12 10:35:27;;;;;;;4.87;4.37;;;25.50;50.80;;;;;;6182852;23;20175;-70
2023/06/12 10:37:53;;;;;;;4.73;4.33;;;25.50;50.80;;;;;;6182982;23;20218;-70
2023/06/12 10:40:19;;;;;;;5.03;4.53;;;25.50;50.80;;;;;;6182940;23;20407;-70
2023/06/12 10:42:51;;;;;;;4.40;4.10;;;25.50;50.80;;;;;;6182927;23;20536;-70
2023/06/12 10:45:34;;;;;;;4.97;4.57;;;25.50;50.80;;;;;;6182888;23;20892;-70
2023/06/12 10:48:05;;;;;;;4.90;4.50;;;25.50;50.80;;;;;;6182851;23;20371;-71
2023/06/12 10:50:31;;;;;;;5.10;4.70;;;25.50;50.80;;;;;;6182776;23;20729;-69
2023/06/12 10:53:01;;;;;;;4.77;4.37;;;25.50;50.80;;;;;;6182776;23;20410;-70
2023/06/12 10:55:26;;;;;;;4.63;4.23;;;25.50;50.80;;;;;;6131630;23;1199399;-69
2023/06/12 10:57:57;;;;;;;4.77;4.37;;;25.50;50.90;;;;;;6184247;23;20295;-70
2023/06/12 11:00:37;;;;;;;5.07;4.57;;;25.50;50.80;;;;;;6183979;23;20543;-70
2023/06/12 11:03:05;;;;;;;4.80;4.40;;;25.50;51.40;;;;;;6183936;23;20385;-69
2023/06/12 11:05:32;;;;;;;5.20;4.80;;;25.50;50.90;;;;;;6183976;23;20414;-67
2023/06/12 11:08:03;;;;;;;5.43;4.93;;;25.50;50.80;;;;;;6183986;23;20486;-69
2023/06/12 11:10:30;;;;;;;4.70;4.30;;;25.50;50.90;;;;;;6183970;23;20411;-70
2023/06/12 11:12:56;;;;;;;5.30;4.80;;;25.50;50.90;;;;;;6184246;23;20437;-70
2023/06/12 11:15:22;;;;;;;4.67;4.27;;;25.50;50.90;;;;;;6183935;23;20994;-69
2023/06/12 11:17:49;;;;;;;4.70;4.30;;;25.50;50.80;;;;;;6183901;23;20822;-69
2023/06/12 11:20:16;;;;;;;5.60;5.10;;;25.50;50.90;;;;;;6183965;23;20371;-69
2023/06/12 11:22:42;;;;;;;5.10;4.70;;;25.50;50.90;;;;;;6158042;23;20375;-70
2023/06/12 11:25:08;;;;;;;4.80;4.40;;;25.50;50.80;;;;;;6184182;23;20402;-69
2023/06/12 11:27:37;;;;;;;4.50;4.10;;;25.50;50.80;;;;;;6184259;23;20179;-70
2023/06/12 11:30:13;;;;;;;5.00;4.60;;;25.50;50.90;;;;;;6183843;23;20411;-70
2023/06/12 11:32:40;;;;;;;5.07;4.67;;;25.50;50.80;;;;;;6184235;23;20367;-70
2023/06/12 11:35:07;;;;;;;4.87;4.10;;;25.50;50.80;;;;;;6183737;23;20415;-70
2023/06/12 11:37:32;;;;;;;4.70;4.30;;;25.50;50.90;;;;;;6183812;23;20378;-70
2023/06/12 11:40:12;;;;;;;5.20;4.80;;;25.50;50.80;;;;;;6183942;23;20433;-69
2023/06/12 11:42:40;;;;;;;4.50;4.10;;;25.50;50.80;;;;;;6185935;23;20132;-69
2023/06/12 11:45:10;;;;;;;5.57;4.60;;;25.50;50.80;;;;;;6185616;23;20406;-70
2023/06/12 11:47:44;;;;;;;4.83;4.33;;;25.50;50.80;;;;;;6186108;23;20748;-68
2023/06/12 11:50:15;;;;;;;4.57;4.17;;;25.50;50.80;;;;;;6185612;23;20407;-69
2023/06/12 11:52:42;;;;;;;4.40;4.10;;;25.50;50.80;;;;;;6186057;23;20363;-69
2023/06/12 11:55:10;;;;;;;4.93;4.53;;;25.50;50.80;;;;;;6185354;23;20431;-70
2023/06/12 11:57:36;;;;;;;4.23;3.93;;;25.50;50.80;;;;;;6185861;23;20366;-70
2023/06/12 12:00:13;;;;;;;5.00;4.60;;;25.50;50.80;;;;;;6185822;23;20753;-70
2023/06/12 12:02:43;;;;;;;4.80;4.40;;;25.50;50.80;;;;;;6185601;23;20351;-70
2023/06/12 12:05:16;;;;;;;4.93;4.50;;;25.50;50.80;;;;;;6185530;23;20894;-70
2023/06/12 12:07:45;;;;;;;4.97;4.57;;;25.50;50.80;;;;;;6185498;23;20518;-71
2023/06/12 12:10:12;;;;;;;5.07;4.70;;;25.50;50.90;;;;;;6185384;23;20755;-68
2023/06/12 12:12:59;;;;;;;5.43;4.33;;;25.50;50.80;;;;;;6158937;23;20445;-69
2023/06/12 12:15:26;;;;;;;4.57;4.17;;;25.60;50.90;;;;;;6185273;23;20482;-70
2023/06/12 12:17:52;;;;;;;4.77;4.37;;;25.50;50.80;;;;;;6185673;23;20371;-70
2023/06/12 12:20:23;;;;;;;4.50;4.10;;;25.50;50.80;;;;;;6185392;23;20394;-71
2023/06/12 12:22:50;;;;;;;4.50;4.10;;;25.50;50.80;;;;;;6158963;23;20430;-70
2023/06/12 12:25:21;;;;;;;4.50;4.10;;;25.50;51.40;;;;;;6185219;23;20864;-70
2023/06/12 12:27:49;;;;;;;4.87;4.47;;;25.50;50.80;;;;;;6185454;23;20835;-70
2023/06/12 12:30:15;;;;;;;4.93;4.53;;;25.50;50.80;;;;;;6185258;23;20411;-70
2023/06/12 12:32:49;;;;;;;6.20;4.80;;;25.50;50.80;;;;;;6185220;23;20376;-70
2023/06/12 12:35:15;;;;;;;6.10;5.60;;;25.50;50.80;;;;;;6185093;23;20391;-70
2023/06/12 12:37:42;;;;;;;6.23;5.73;;;25.50;50.90;;;;;;6185220;23;20816;-70
2023/06/12 12:40:12;;;;;;;8.00;7.10;;;25.50;50.80;;;;;;6185220;23;20375;-69
2023/06/12 12:42:40;;;;;;;7.77;7.07;;;25.50;50.80;;;;;;6185530;23;20356;-70
2023/06/12 12:45:10;;;;;;;7.53;6.80;;;25.60;50.80;;;;;;6185363;23;20445;-70
2023/06/12 12:47:36;;;;;;;6.83;6.23;;;25.50;50.70;;;;;;6185163;23;20418;-70
2023/06/12 12:50:03;;;;;;;8.47;6.90;;;25.50;50.70;;;;;;6158651;23;20426;-69